createdAt,value
2018-12-14T00:01:39.412Z,77.40
2018-12-14T00:04:07.520Z,77.70
2018-12-14T00:06:35.699Z,77.80
2018-12-14T00:09:04.893Z,77.50
2018-12-14T00:11:33.018Z,77.50
2018-12-14T00:14:01.129Z,77.90
2018-12-14T00:16:29.220Z,77.50
2018-12-14T00:18:57.331Z,78.00
2018-12-14T00:21:25.494Z,77.60
2018-12-14T00:23:53.574Z,78.10
2018-12-14T00:26:21.704Z,78.00
2018-12-14T00:28:49.775Z,77.00
2018-12-14T00:31:17.857Z,76.30
2018-12-14T00:33:47.101Z,76.40
2018-12-14T00:36:15.651Z,76.80
2018-12-14T00:38:43.803Z,77.10
2018-12-14T00:41:11.867Z,77.70
2018-12-14T00:43:39.943Z,76.80
2018-12-14T00:46:08.012Z,76.40
2018-12-14T00:48:36.139Z,76.40
2018-12-14T00:51:04.736Z,76.30
2018-12-14T00:53:32.786Z,76.50
2018-12-14T00:56:01.382Z,75.80
2018-12-14T00:58:29.455Z,75.50
2018-12-14T01:00:58.434Z,75.90
2018-12-14T01:03:26.619Z,76.60
2018-12-14T01:05:54.687Z,76.30
2018-12-14T01:08:22.766Z,77.30
2018-12-14T01:10:50.835Z,76.60
2018-12-14T01:13:18.899Z,77.60
2018-12-14T01:15:47.028Z,77.50
2018-12-14T01:18:15.678Z,78.10
2018-12-14T01:20:43.772Z,78.00
2018-12-14T01:23:11.828Z,78.00
2018-12-14T01:25:40.194Z,78.40
2018-12-14T01:28:08.244Z,78.20
2018-12-14T01:30:36.858Z,78.70
2018-12-14T01:33:04.938Z,78.00
2018-12-14T01:35:34.335Z,78.00
2018-12-14T01:38:02.407Z,77.80
2018-12-14T01:40:30.484Z,78.20
2018-12-14T01:42:58.639Z,77.90
2018-12-14T01:45:26.727Z,77.90
2018-12-14T01:47:54.791Z,78.40
2018-12-14T01:50:22.859Z,77.90
2018-12-14T01:52:51.304Z,78.20
2018-12-14T01:55:19.468Z,77.50
2018-12-14T01:57:47.725Z,78.00
2018-12-14T02:00:16.807Z,77.70
2018-12-14T02:02:44.931Z,77.50
2018-12-14T02:05:13.012Z,77.90
2018-12-14T02:07:41.223Z,78.00
2018-12-14T02:10:09.327Z,77.50
2018-12-14T02:12:37.731Z,78.10
2018-12-14T02:15:06.353Z,78.50
2018-12-14T02:17:34.527Z,78.70
2018-12-14T02:20:02.603Z,78.40
2018-12-14T02:22:30.708Z,78.10
2018-12-14T02:24:58.802Z,78.20
2018-12-14T02:27:26.891Z,78.20
2018-12-14T02:29:55.535Z,78.40
2018-12-14T02:32:23.610Z,78.00
2018-12-14T02:34:51.675Z,77.20
2018-12-14T02:37:21.292Z,77.40
2018-12-14T02:39:49.382Z,78.40
2018-12-14T02:42:19.349Z,77.90
2018-12-14T02:44:47.863Z,78.20
2018-12-14T02:47:16.395Z,77.90
2018-12-14T02:49:45.141Z,77.70
2018-12-14T02:52:13.755Z,78.00
2018-12-14T02:54:41.840Z,77.90
2018-12-14T02:57:09.908Z,77.90
2018-12-14T02:59:39.380Z,77.80
2018-12-14T03:02:07.534Z,78.00
2018-12-14T03:04:36.159Z,78.20
2018-12-14T03:07:04.360Z,78.20
2018-12-14T03:09:32.435Z,78.20
2018-12-14T03:12:00.534Z,78.40
2018-12-14T03:14:28.621Z,78.00
2018-12-14T03:16:57.325Z,78.70
2018-12-14T03:19:25.584Z,78.30
2018-12-14T03:21:55.443Z,78.10
2018-12-14T03:24:23.580Z,78.00
2018-12-14T03:26:51.650Z,78.20
2018-12-14T03:29:19.735Z,77.90
2018-12-14T03:31:48.092Z,77.80
2018-12-14T03:34:16.287Z,77.70
2018-12-14T03:36:44.397Z,78.00
2018-12-14T03:39:12.672Z,77.70
2018-12-14T03:41:40.764Z,77.90
2018-12-14T03:44:08.845Z,77.30
2018-12-14T03:46:36.943Z,77.60
2018-12-14T03:49:05.157Z,77.40
2018-12-14T03:51:33.306Z,76.40
2018-12-14T03:54:01.468Z,76.40
2018-12-14T03:56:29.546Z,76.40
2018-12-14T03:58:57.792Z,76.90
2018-12-14T04:01:28.269Z,76.60
2018-12-14T04:03:56.619Z,77.10
2018-12-14T04:06:24.730Z,77.40
2018-12-14T04:08:52.801Z,77.40
2018-12-14T04:11:20.890Z,77.30
2018-12-14T04:13:48.960Z,77.30
2018-12-14T04:16:17.797Z,77.40
2018-12-14T04:18:46.557Z,77.80
2018-12-14T04:21:14.675Z,77.70
2018-12-14T04:23:44.421Z,77.50
2018-12-14T04:26:12.499Z,78.00
2018-12-14T04:28:40.570Z,78.00
2018-12-14T04:31:08.704Z,77.90
2018-12-14T04:33:36.956Z,78.30
2018-12-14T04:36:05.081Z,77.40
2018-12-14T04:38:33.218Z,77.70
2018-12-14T04:41:01.372Z,77.90
2018-12-14T04:43:29.451Z,77.80
2018-12-14T04:45:58.117Z,77.70
2018-12-14T04:48:26.232Z,77.80
2018-12-14T04:50:54.389Z,78.00
2018-12-14T04:53:22.535Z,77.60
2018-12-14T04:55:50.635Z,77.90
2018-12-14T04:58:18.707Z,77.70
2018-12-14T05:00:46.884Z,77.30
2018-12-14T05:03:17.064Z,77.90
2018-12-14T05:05:45.206Z,78.50
2018-12-14T05:08:13.315Z,78.40
2018-12-14T05:10:41.407Z,78.00
2018-12-14T05:13:09.581Z,77.50
2018-12-14T05:15:37.790Z,78.00
2018-12-14T05:18:05.976Z,77.90
2018-12-14T05:20:34.030Z,77.90
2018-12-14T05:23:02.119Z,78.20
2018-12-14T05:25:30.181Z,77.50
2018-12-14T05:27:58.351Z,77.60
2018-12-14T05:30:27.031Z,76.90
2018-12-14T05:32:55.122Z,77.70
2018-12-14T05:35:23.199Z,77.40
2018-12-14T05:37:51.271Z,77.40
2018-12-14T05:40:19.335Z,77.50
2018-12-14T05:42:48.007Z,77.90
2018-12-14T05:45:16.327Z,77.70
2018-12-14T05:47:44.681Z,77.50
2018-12-14T05:50:12.865Z,77.50
2018-12-14T05:52:41.060Z,77.70
2018-12-14T05:55:09.135Z,77.80
2018-12-14T05:57:37.271Z,77.80
2018-12-14T06:00:09.532Z,77.50
2018-12-14T06:02:37.659Z,77.90
2018-12-14T06:05:06.166Z,78.20
2018-12-14T06:07:34.199Z,77.90
2018-12-14T06:10:02.277Z,78.50
2018-12-14T06:12:30.911Z,78.50
2018-12-14T06:14:58.975Z,78.40
2018-12-14T06:17:27.060Z,78.20
2018-12-14T06:19:55.212Z,80.20
2018-12-14T06:22:23.286Z,77.70
2018-12-14T06:24:51.347Z,77.80
2018-12-14T06:27:24.159Z,77.80
2018-12-14T06:29:52.228Z,77.90
2018-12-14T06:32:20.291Z,77.40
2018-12-14T06:34:48.479Z,77.60
2018-12-14T06:37:16.993Z,77.90
2018-12-14T06:39:45.067Z,77.80
2018-12-14T06:42:13.547Z,77.60
2018-12-14T06:44:44.270Z,77.50
2018-12-14T06:47:12.339Z,78.10
2018-12-14T06:49:40.406Z,78.20
2018-12-14T06:52:08.488Z,77.90
2018-12-14T06:54:36.643Z,77.90
2018-12-14T06:57:05.936Z,77.90
2018-12-14T06:59:33.999Z,77.60
2018-12-14T07:02:02.063Z,77.70
2018-12-14T07:04:30.141Z,77.90
2018-12-14T07:07:04.138Z,78.10
2018-12-14T07:09:30.403Z,78.00
2018-12-14T07:11:58.523Z,77.80
2018-12-14T07:14:26.610Z,77.60
2018-12-14T07:16:54.696Z,78.00
2018-12-14T07:19:22.783Z,77.90
2018-12-14T07:21:50.868Z,77.90
2018-12-14T07:24:18.972Z,77.70
2018-12-14T07:26:47.235Z,77.50
2018-12-14T07:29:15.315Z,78.20
2018-12-14T07:31:43.463Z,78.30
2018-12-14T07:34:11.739Z,78.50
2018-12-14T07:36:40.311Z,78.30
2018-12-14T07:39:08.530Z,78.70
2018-12-14T07:41:36.815Z,78.90
2018-12-14T07:44:04.908Z,78.60
2018-12-14T07:46:32.979Z,78.60
2018-12-14T07:49:01.288Z,78.90
2018-12-14T07:51:29.588Z,78.40
2018-12-14T07:53:57.736Z,78.80
2018-12-14T07:56:25.951Z,77.80
2018-12-14T07:59:07.407Z,78.40
2018-12-14T08:01:35.479Z,78.70
2018-12-14T08:04:03.547Z,78.70
2018-12-14T08:06:31.623Z,79.00
2018-12-14T08:08:59.690Z,78.90
2018-12-14T08:11:27.875Z,79.00
2018-12-14T08:13:57.919Z,78.80
2018-12-14T08:16:26.881Z,78.90
2018-12-14T08:18:54.961Z,78.60
2018-12-14T08:21:23.118Z,78.80
2018-12-14T08:23:51.175Z,79.00
2018-12-14T08:26:19.322Z,79.10
2018-12-14T08:28:47.962Z,79.20
2018-12-14T08:31:16.428Z,79.60
2018-12-14T08:33:44.513Z,79.50
2018-12-14T08:36:13.507Z,79.20
2018-12-14T08:38:41.607Z,79.40
2018-12-14T08:41:10.407Z,79.50
2018-12-14T08:43:41.657Z,79.10
2018-12-14T08:46:10.780Z,78.50
2018-12-14T08:48:38.863Z,78.80
2018-12-14T08:51:07.651Z,78.90
2018-12-14T08:53:37.500Z,78.70
2018-12-14T08:56:05.650Z,78.40
